Time;durP1;ratioP1;P1;durP2;ratioP2;P2;SDS_P1;SDS_P2;PMS_P1;PMS_P2;Temp;Humidity;BMP_temperature;BMP_pressure;BME280_temperature;BME280_humidity;BME280_pressure;Samples;Min_cycle;Max_cycle;Signal;HPM_P1;HPM_P2
2020/12/30 00:02:30;;;;;;;2.55;1.40;;;;;;;2.15;91.58;95442.25;4961514;28;20138;-79
2020/12/30 00:05:00;;;;;;;2.85;1.35;;;;;;;2.21;91.59;95446.41;4931159;29;20129;-79
2020/12/30 00:07:25;;;;;;;3.83;1.33;;;;;;;2.24;90.93;95448.53;4937658;29;20043;-79
2020/12/30 00:09:57;;;;;;;2.25;1.23;;;;;;;2.21;91.22;95451.56;4954108;28;20049;-78
2020/12/30 00:12:27;;;;;;;1.88;1.25;;;;;;;2.24;90.84;95445.97;4938802;28;20063;-78
2020/12/30 00:14:55;;;;;;;1.65;1.23;;;;;;;2.26;90.87;95456.78;4951265;28;20130;-78
2020/12/30 00:17:22;;;;;;;2.45;1.15;;;;;;;2.24;90.71;95454.47;4947998;28;20035;-78
2020/12/30 00:19:49;;;;;;;3.28;1.10;;;;;;;2.21;90.93;95454.13;4950225;28;20495;-79
2020/12/30 00:22:15;;;;;;;1.67;1.00;;;;;;;2.28;90.14;95457.34;4942224;29;20434;-78
2020/12/30 00:24:41;;;;;;;1.50;0.70;;;;;;;2.10;90.26;95442.94;4947174;28;20118;-78
2020/12/30 00:27:07;;;;;;;1.13;0.85;;;;;;;2.08;90.31;95450.09;4939692;29;20062;-79
2020/12/30 00:29:33;;;;;;;1.35;0.80;;;;;;;1.98;90.67;95450.69;4945154;29;20028;-78
2020/12/30 00:31:58;;;;;;;1.45;0.70;;;;;;;2.02;90.65;95454.38;4943144;28;20039;-78
2020/12/30 00:34:27;;;;;;;1.30;0.80;;;;;;;2.04;90.86;95452.34;4932846;28;20034;-78
2020/12/30 00:36:53;;;;;;;1.45;0.70;;;;;;;2.03;90.77;95458.47;4931631;29;20054;-78
2020/12/30 00:39:19;;;;;;;1.30;0.77;;;;;;;1.98;90.63;95450.69;4948808;28;20490;-78
2020/12/30 00:41:52;;;;;;;2.05;0.80;;;;;;;1.94;90.77;95457.31;4942287;29;20529;-78
2020/12/30 00:44:18;;;;;;;1.30;1.10;;;;;;;2.10;90.89;95455.75;4947719;28;20058;-78
2020/12/30 00:46:43;;;;;;;1.30;0.90;;;;;;;2.05;90.77;95455.69;4942634;29;20141;-79
2020/12/30 00:49:09;;;;;;;2.33;1.15;;;;;;;2.00;91.35;95453.81;4948608;29;20073;-79
2020/12/30 00:51:36;;;;;;;3.10;1.20;;;;;;;1.87;91.74;95460.03;4924584;29;20127;-78
2020/12/30 00:54:03;;;;;;;2.35;1.23;;;;;;;1.89;91.67;95462.34;4939533;28;20041;-79
2020/12/30 00:56:31;;;;;;;1.63;1.25;;;;;;;1.88;91.75;95468.50;4947439;28;20749;-79
2020/12/30 00:58:57;;;;;;;1.40;1.00;;;;;;;1.86;91.93;95473.09;4965862;28;20590;-78
2020/12/30 01:01:22;;;;;;;1.90;1.08;;;;;;;2.02;91.96;95469.78;4937145;29;20135;-79
2020/12/30 01:03:48;;;;;;;2.25;1.10;;;;;;;2.01;91.45;95470.00;4949361;28;20066;-78
2020/12/30 01:06:14;;;;;;;1.85;1.17;;;;;;;2.02;91.16;95469.78;4942498;29;20095;-78
2020/12/30 01:08:40;;;;;;;2.22;1.65;;;;;;;2.05;91.42;95471.84;4922461;29;20525;-79
2020/12/30 01:11:06;;;;;;;2.15;1.35;;;;;;;2.11;91.46;95477.06;4938802;28;20475;-78
2020/12/30 01:13:32;;;;;;;2.30;1.38;;;;;;;2.11;91.06;95477.06;4946068;29;20305;-78
2020/12/30 01:15:57;;;;;;;2.03;1.50;;;;;;;2.13;91.26;95478.41;4943835;29;20036;-78
2020/12/30 01:18:24;;;;;;;1.60;1.13;;;;;;;2.12;91.61;95476.84;4954427;28;20028;-79
2020/12/30 01:20:50;;;;;;;2.20;1.45;;;;;;;2.14;91.38;95482.53;4965408;28;20644;-78
2020/12/30 01:23:16;;;;;;;2.67;1.77;;;;;;;2.09;91.18;95481.66;4942573;28;20035;-79
2020/12/30 01:25:42;;;;;;;2.90;1.52;;;;;;;2.17;91.20;95489.75;4940688;29;20043;-78
2020/12/30 01:28:08;;;;;;;2.33;1.40;;;;;;;2.19;91.36;95489.53;4946693;28;20423;-79
2020/12/30 01:30:34;;;;;;;4.28;1.50;;;;;;;2.13;91.53;95487.91;4959746;28;20042;-79
2020/12/30 01:33:00;;;;;;;1.92;1.30;;;;;;;2.19;91.88;95481.81;4965708;28;20422;-78
2020/12/30 01:35:25;;;;;;;1.98;1.42;;;;;;;2.23;91.11;95482.94;4930929;29;20035;-79
2020/12/30 01:37:51;;;;;;;3.22;1.50;;;;;;;2.24;91.29;95479.34;4939120;28;20297;-79
2020/12/30 01:40:19;;;;;;;2.90;1.50;;;;;;;2.20;91.40;95483.41;4929850;29;20040;-79
2020/12/30 01:42:46;;;;;;;2.65;1.92;;;;;;;2.28;91.07;95485.59;4931289;29;20040;-78
2020/12/30 01:45:14;;;;;;;3.13;2.00;;;;;;;2.32;90.97;95484.09;4949949;29;20055;-78
2020/12/30 01:47:40;;;;;;;3.22;1.48;;;;;;;2.35;91.30;95493.91;4945315;28;20027;-78
2020/12/30 01:50:07;;;;;;;2.55;1.48;;;;;;;2.35;91.10;95491.34;4952464;28;20069;-78
2020/12/30 01:52:33;;;;;;;4.07;1.83;;;;;;;2.29;90.97;95492.25;4950163;28;20027;-79
2020/12/30 01:54:59;;;;;;;2.72;1.60;;;;;;;2.20;91.20;95488.53;4947559;29;20031;-79
2020/12/30 01:57:25;;;;;;;2.88;1.65;;;;;;;2.30;91.45;95487.94;4945520;28;20039;-79
2020/12/30 01:59:53;;;;;;;3.65;1.58;;;;;;;2.25;91.23;95488.63;4948423;28;20454;-79
2020/12/30 02:02:21;;;;;;;4.10;1.80;;;;;;;2.27;91.57;95494.28;4965849;28;20507;-79
2020/12/30 02:04:52;;;;;;;2.70;2.00;;;;;;;2.19;91.15;95487.75;4948557;28;20039;-79
2020/12/30 02:07:19;;;;;;;3.65;1.75;;;;;;;2.31;90.72;95490.22;4966889;28;20029;-78
2020/12/30 02:09:45;;;;;;;2.53;1.65;;;;;;;2.34;91.38;95494.91;4968909;28;20106;-79
2020/12/30 02:12:13;;;;;;;2.80;1.80;;;;;;;2.37;90.92;95499.59;4948998;29;20035;-78
2020/12/30 02:14:40;;;;;;;2.92;1.58;;;;;;;2.30;91.29;95495.63;4944920;29;20106;-78
2020/12/30 02:17:12;;;;;;;3.22;1.50;;;;;;;2.24;91.27;95499.88;4955824;28;20027;-78
2020/12/30 02:19:38;;;;;;;3.15;1.45;;;;;;;2.32;91.75;95509.00;4955282;28;20031;-79
2020/12/30 02:22:05;;;;;;;2.85;1.88;;;;;;;2.34;91.58;95509.53;4947937;28;20114;-79
2020/12/30 02:24:32;;;;;;;3.08;1.92;;;;;;;2.32;91.40;95502.06;4939019;28;20038;-78
2020/12/30 02:26:59;;;;;;;4.75;2.10;;;;;;;2.34;91.27;95515.44;4951871;28;20042;-78
2020/12/30 02:29:25;;;;;;;3.03;1.60;;;;;;;2.34;91.32;95515.44;4947874;29;20387;-78
2020/12/30 02:31:51;;;;;;;2.85;1.58;;;;;;;2.31;91.63;95510.78;4972519;28;20042;-78
2020/12/30 02:34:17;;;;;;;2.67;1.60;;;;;;;2.40;91.13;95514.53;4952937;29;20102;-78
2020/12/30 02:36:44;;;;;;;4.65;2.05;;;;;;;2.30;91.23;95514.38;4949889;29;20031;-78
2020/12/30 02:39:10;;;;;;;3.22;2.20;;;;;;;2.42;91.27;95517.66;4952060;28;20031;-78
2020/12/30 02:41:35;;;;;;;2.80;1.90;;;;;;;2.41;91.06;95526.34;4955880;28;20031;-78
2020/12/30 02:44:04;;;;;;;3.42;1.77;;;;;;;2.35;91.27;95517.03;4950090;29;20031;-78
2020/12/30 02:46:30;;;;;;;4.82;1.90;;;;;;;2.42;91.66;95522.78;4950018;28;20038;-78
2020/12/30 02:48:56;;;;;;;3.40;1.85;;;;;;;2.41;91.23;95520.44;4955691;28;20038;-79
2020/12/30 02:51:21;;;;;;;3.17;1.73;;;;;;;2.42;91.39;95527.91;4958889;28;20035;-78
2020/12/30 02:53:47;;;;;;;4.65;2.88;;;;;;;2.42;90.96;95522.00;4968465;28;20062;-78
2020/12/30 02:56:20;;;;;;;3.72;2.03;;;;;;;2.50;90.89;95524.19;4952565;29;20035;-78
2020/12/30 02:58:47;;;;;;;4.45;2.10;;;;;;;2.49;90.78;95537.28;4968264;28;20075;-78
2020/12/30 03:01:13;;;;;;;4.03;2.20;;;;;;;2.51;90.71;95535.25;4943619;29;20031;-79
2020/12/30 03:03:39;;;;;;;4.20;2.10;;;;;;;2.37;91.41;95540.69;4932510;28;20102;-78
2020/12/30 03:06:07;;;;;;;4.03;2.13;;;;;;;2.39;91.27;95538.66;4951243;29;20064;-78
2020/12/30 03:08:33;;;;;;;2.35;1.75;;;;;;;2.44;91.10;95545.66;4948737;28;20082;-79
2020/12/30 03:11:00;;;;;;;2.85;2.00;;;;;;;2.42;90.77;95538.19;4946789;29;20035;-78
2020/12/30 03:13:26;;;;;;;2.85;2.08;;;;;;;2.51;90.70;95551.44;4951725;29;20023;-79
2020/12/30 03:15:52;;;;;;;2.50;2.08;;;;;;;2.44;91.09;95546.44;4939874;28;20511;-79
2020/12/30 03:18:18;;;;;;;3.55;1.90;;;;;;;2.36;91.13;95540.91;4971569;28;20042;-78
2020/12/30 03:20:44;;;;;;;4.07;1.90;;;;;;;2.38;91.64;95554.28;4952467;28;20062;-79
2020/12/30 03:23:10;;;;;;;3.05;2.05;;;;;;;2.45;91.23;95547.25;4948742;28;20035;-78
2020/12/30 03:25:37;;;;;;;4.10;2.20;;;;;;;2.49;91.02;95550.13;4936182;28;20177;-78
2020/12/30 03:28:03;;;;;;;6.50;1.83;;;;;;;2.50;91.11;95549.88;4954229;28;20039;-79
2020/12/30 03:30:30;;;;;;;4.43;2.80;;;;;;;2.50;90.91;95547.31;4944502;28;20035;-79
2020/12/30 03:32:56;;;;;;;3.95;1.48;;;;;;;2.46;90.83;95566.00;4951914;29;20086;-78
2020/12/30 03:35:24;;;;;;;2.72;1.40;;;;;;;2.38;91.20;95560.22;4951486;29;20027;-78
2020/12/30 03:37:54;;;;;;;4.70;2.47;;;;;;;2.39;91.08;95553.28;4965729;28;20031;-79
2020/12/30 03:40:20;;;;;;;3.28;1.92;;;;;;;2.34;91.04;95551.41;4950525;29;20031;-78
2020/12/30 03:42:52;;;;;;;2.10;1.50;;;;;;;2.49;90.94;95557.81;4951892;29;20031;-78
2020/12/30 03:45:19;;;;;;;2.65;1.63;;;;;;;2.46;90.70;95563.41;4953262;28;20034;-79
2020/12/30 03:47:44;;;;;;;4.47;2.13;;;;;;;2.38;90.76;95552.53;4935205;29;20556;-78
2020/12/30 03:50:10;;;;;;;4.28;2.13;;;;;;;2.37;90.87;95561.22;4931429;28;20089;-78
2020/12/30 03:52:36;;;;;;;4.32;2.05;;;;;;;2.37;91.17;95556.09;4945841;29;20031;-78
2020/12/30 03:55:02;;;;;;;3.40;1.75;;;;;;;2.38;91.22;95567.13;4954301;28;20035;-78
2020/12/30 03:57:28;;;;;;;4.35;1.65;;;;;;;2.46;90.87;95576.25;4944951;29;20394;-78
2020/12/30 03:59:54;;;;;;;4.10;1.70;;;;;;;2.34;91.09;95571.94;4949773;28;20027;-78
2020/12/30 04:02:19;;;;;;;5.35;2.13;;;;;;;2.33;91.23;95572.97;4937806;28;20603;-78
2020/12/30 04:04:45;;;;;;;2.85;1.83;;;;;;;2.46;91.48;95576.25;4954821;28;20046;-78
2020/12/30 04:07:11;;;;;;;4.00;2.05;;;;;;;2.40;91.15;95581.31;4953780;28;20915;-78
2020/12/30 04:09:37;;;;;;;3.58;1.48;;;;;;;2.44;90.66;95577.25;4948426;28;20079;-78
2020/12/30 04:12:04;;;;;;;4.10;1.63;;;;;;;2.53;90.96;95580.22;4951663;29;20517;-78
2020/12/30 04:14:29;;;;;;;3.72;1.70;;;;;;;2.47;90.61;95580.38;4938151;28;20042;-78
2020/12/30 04:16:55;;;;;;;4.72;2.10;;;;;;;2.52;90.38;95583.81;4971741;28;20045;-78
2020/12/30 04:19:21;;;;;;;2.95;2.63;;;;;;;2.43;90.69;95588.56;4949449;28;20098;-78
2020/12/30 04:21:47;;;;;;;4.60;1.80;;;;;;;2.46;91.15;95595.00;4939898;29;20126;-78
2020/12/30 04:24:12;;;;;;;5.25;1.70;;;;;;;2.47;90.51;95596.59;4945133;29;20601;-78
2020/12/30 04:26:38;;;;;;;3.42;1.60;;;;;;;2.52;90.78;95593.31;4945599;28;20023;-79
2020/12/30 04:29:04;;;;;;;3.25;1.77;;;;;;;2.41;91.05;95595.69;4949881;29;20031;-79
2020/12/30 04:31:30;;;;;;;2.33;1.33;;;;;;;2.38;91.05;95598.75;4945612;29;20572;-79
2020/12/30 04:33:56;;;;;;;6.50;2.55;;;;;;;2.38;90.86;95592.81;4961529;28;20035;-78
2020/12/30 04:36:22;;;;;;;2.20;1.48;;;;;;;2.38;91.32;95595.38;4954658;28;20038;-78
2020/12/30 04:38:47;;;;;;;4.75;1.60;;;;;;;2.42;90.75;95604.97;4953002;28;20027;-79
2020/12/30 04:41:14;;;;;;;2.83;1.67;;;;;;;2.41;90.96;95600.84;4948364;29;20074;-79
2020/12/30 04:43:42;;;;;;;3.90;1.45;;;;;;;2.48;90.77;95608.41;4916302;29;20091;-78
2020/12/30 04:46:11;;;;;;;2.42;1.77;;;;;;;2.47;90.91;95603.50;4953373;28;20105;-78
2020/12/30 04:48:37;;;;;;;3.75;1.52;;;;;;;2.45;90.70;95608.88;4952316;28;20458;-79
2020/12/30 04:51:02;;;;;;;3.55;1.83;;;;;;;2.47;90.85;95606.06;4953581;28;20026;-78
2020/12/30 04:53:28;;;;;;;4.68;1.70;;;;;;;2.48;90.84;95605.06;4937564;28;20031;-79
2020/12/30 04:55:58;;;;;;;3.05;1.60;;;;;;;2.42;90.94;95610.13;4964554;28;20027;-78
2020/12/30 04:58:31;;;;;;;5.68;2.00;;;;;;;2.47;90.36;95606.84;4943825;29;20034;-78
2020/12/30 05:00:58;;;;;;;5.47;1.70;;;;;;;2.44;90.63;95608.09;4946733;29;20039;-79
2020/12/30 05:03:28;;;;;;;3.35;1.25;;;;;;;2.43;90.64;95610.88;4918264;29;20047;-78
2020/12/30 05:05:56;;;;;;;3.70;2.08;;;;;;;2.39;90.93;95609.78;4950397;29;20035;-77
2020/12/30 05:08:21;;;;;;;2.40;1.65;;;;;;;2.47;90.16;95609.44;4949795;28;20042;-78
2020/12/30 05:10:49;;;;;;;5.15;1.98;;;;;;;2.44;90.31;95610.66;4952038;28;20038;-79
2020/12/30 05:13:15;;;;;;;3.75;1.40;;;;;;;2.43;90.58;95621.97;4947216;28;20127;-78
2020/12/30 05:15:40;;;;;;;6.90;1.88;;;;;;;2.42;90.50;95619.63;4937519;28;20035;-78
2020/12/30 05:18:07;;;;;;;2.40;1.20;;;;;;;2.44;90.29;95631.19;4934090;29;20031;-79
2020/12/30 05:20:36;;;;;;;2.90;1.15;;;;;;;2.28;90.35;95633.72;4948064;28;20027;-78
2020/12/30 05:23:06;;;;;;;2.25;0.85;;;;;;;2.40;89.92;95642.19;4948739;29;20031;-78
2020/12/30 05:25:39;;;;;;;3.35;1.20;;;;;;;2.23;90.08;95645.47;4951338;28;20386;-78
2020/12/30 05:28:07;;;;;;;2.00;1.00;;;;;;;2.30;90.18;95655.63;4949865;28;20374;-78
2020/12/30 05:30:34;;;;;;;4.70;1.10;;;;;;;2.26;90.62;95651.94;4950801;28;20489;-79
2020/12/30 05:33:00;;;;;;;2.20;1.02;;;;;;;2.26;89.79;95646.78;4956912;28;20164;-78
2020/12/30 05:35:27;;;;;;;4.32;1.20;;;;;;;2.24;90.36;95646.25;4942677;29;20114;-78
2020/12/30 05:37:53;;;;;;;2.80;0.98;;;;;;;2.28;90.25;95655.06;4939165;28;20058;-78
2020/12/30 05:40:24;;;;;;;1.27;1.00;;;;;;;2.23;90.53;95662.69;4921136;29;20079;-78
2020/12/30 05:42:51;;;;;;;1.40;0.90;;;;;;;2.26;90.16;95657.06;4954113;28;20026;-78
2020/12/30 05:45:21;;;;;;;3.05;1.02;;;;;;;2.32;89.96;95661.31;4940931;28;20031;-78
2020/12/30 05:47:47;;;;;;;1.63;1.00;;;;;;;2.29;89.88;95656.63;4940577;28;20077;-79
2020/12/30 05:50:21;;;;;;;2.45;1.00;;;;;;;2.22;90.05;95666.25;4944478;28;20483;-78
2020/12/30 05:52:48;;;;;;;1.25;0.82;;;;;;;2.19;90.94;95667.50;4964218;28;20035;-78
2020/12/30 05:55:13;;;;;;;4.40;1.65;;;;;;;2.28;90.51;95675.63;4937851;29;20099;-78
2020/12/30 05:57:39;;;;;;;4.75;1.17;;;;;;;2.26;90.18;95667.34;4938706;29;20035;-78
2020/12/30 06:00:05;;;;;;;5.45;1.10;;;;;;;2.21;90.64;95672.38;4950645;28;20035;-78
2020/12/30 06:02:31;;;;;;;4.88;2.28;;;;;;;2.24;90.38;95675.28;4971593;28;20057;-78
2020/12/30 06:05:19;;;;;;;2.55;1.20;;;;;;;2.17;90.19;95673.84;4956069;28;20078;-79
2020/12/30 06:07:49;;;;;;;4.20;1.50;;;;;;;2.12;90.90;95671.19;4919381;28;20042;-78
2020/12/30 06:10:18;;;;;;;5.55;1.65;;;;;;;2.19;90.30;95680.34;4946493;29;20031;-78
2020/12/30 06:12:47;;;;;;;3.63;1.52;;;;;;;2.21;90.23;95678.31;4953648;28;20034;-79
2020/12/30 06:15:26;;;;;;;7.72;1.70;;;;;;;2.06;91.02;95681.34;4950878;28;20027;-78
2020/12/30 06:18:06;;;;;;;3.08;1.50;;;;;;;2.05;90.84;95686.72;4955688;28;20470;-78
2020/12/30 06:20:37;;;;;;;5.20;1.50;;;;;;;2.09;90.74;95684.47;4955886;28;20374;-79
2020/12/30 06:23:08;;;;;;;3.90;1.17;;;;;;;2.12;90.25;95689.94;4951118;28;20027;-78
2020/12/30 06:25:35;;;;;;;3.40;1.35;;;;;;;2.17;90.17;95695.16;4937577;28;20036;-78
2020/12/30 06:28:21;;;;;;;3.55;1.73;;;;;;;2.05;90.61;95696.97;4968476;28;20128;-78
2020/12/30 06:30:49;;;;;;;3.90;1.17;;;;;;;2.10;90.38;95694.53;4951222;28;20105;-79
2020/12/30 06:33:16;;;;;;;6.22;1.42;;;;;;;2.09;90.71;95697.31;4953716;28;20090;-78
2020/12/30 06:35:43;;;;;;;5.18;1.33;;;;;;;2.14;91.06;95708.47;4952269;29;20043;-78
2020/12/30 06:38:29;;;;;;;4.05;1.75;;;;;;;2.03;90.82;95699.00;4955724;28;20062;-79
2020/12/30 06:41:12;;;;;;;;;;;;;;;2.11;90.89;95720.97;4937863;28;20101;-78
2020/12/30 06:43:44;;;;;;;2.47;1.30;;;;;;;2.20;90.70;95714.50;4945687;28;19932;-78
2020/12/30 06:46:11;;;;;;;7.85;1.73;;;;;;;2.26;90.44;95716.13;4952973;28;20050;-79
2020/12/30 06:49:03;;;;;;;5.35;1.70;;;;;;;2.18;90.76;95719.84;4936813;29;20082;-78
2020/12/30 06:51:35;;;;;;;5.32;1.95;;;;;;;2.29;89.82;95718.25;4944368;28;20114;-79
2020/12/30 06:54:01;;;;;;;8.05;2.60;;;;;;;2.30;90.30;95714.69;4939749;28;20544;-79
2020/12/30 06:56:40;;;;;;;4.18;1.83;;;;;;;2.32;89.89;95727.31;4931702;29;20039;-78
2020/12/30 06:59:14;;;;;;;6.22;2.30;;;;;;;2.28;90.10;95729.56;4950499;29;20034;-79
2020/12/30 07:01:54;;;;;;;5.90;3.13;;;;;;;2.32;90.05;95735.78;4968136;28;20105;-79
2020/12/30 07:04:19;;;;;;;4.85;2.30;;;;;;;2.32;90.16;95737.56;4954239;29;20376;-79
2020/12/30 07:06:46;;;;;;;8.48;2.30;;;;;;;2.37;89.91;95741.00;4968000;28;20702;-78
2020/12/30 07:09:13;;;;;;;3.22;1.80;;;;;;;2.31;90.11;95733.44;4952209;29;20042;-79
2020/12/30 07:11:48;;;;;;;4.35;1.92;;;;;;;2.41;89.90;95749.03;4924683;29;20066;-78
2020/12/30 07:14:17;;;;;;;;;;;;;;;2.32;89.87;95748.63;4948682;29;20953;-78
2020/12/30 07:16:47;;;;;;;3.63;1.70;;;;;;;2.30;90.21;95753.22;4971084;28;19947;-78
2020/12/30 07:19:33;;;;;;;5.72;2.00;;;;;;;2.27;90.36;95753.66;4945724;28;20038;-79
2020/12/30 07:22:09;;;;;;;4.35;2.33;;;;;;;2.23;89.99;95755.91;4948708;28;20035;-79
2020/12/30 07:24:45;;;;;;;3.60;2.58;;;;;;;2.34;90.45;95767.16;4938975;28;20026;-79
2020/12/30 07:27:16;;;;;;;7.07;2.17;;;;;;;2.28;90.20;95768.06;4953119;28;20043;-79
2020/12/30 07:29:43;;;;;;;7.22;2.67;;;;;;;2.31;90.05;95762.47;4948627;29;20035;-79
2020/12/30 07:32:12;;;;;;;4.20;2.17;;;;;;;2.28;90.09;95765.50;4923714;28;20523;-79
2020/12/30 07:34:43;;;;;;;6.30;2.13;;;;;;;2.25;90.32;95777.00;4972669;28;20699;-79
2020/12/30 07:37:09;;;;;;;4.53;2.20;;;;;;;2.28;90.51;95769.84;4949305;28;20031;-78
2020/12/30 07:39:38;;;;;;;6.05;2.05;;;;;;;2.21;90.83;95777.66;4944302;29;20054;-79
2020/12/30 07:42:08;;;;;;;4.43;2.10;;;;;;;2.22;90.84;95787.72;4944794;28;20039;-79
2020/12/30 07:44:33;;;;;;;6.70;2.75;;;;;;;2.22;90.74;95787.72;4946972;29;20553;-78
2020/12/30 07:47:08;;;;;;;7.80;2.50;;;;;;;2.24;90.88;95793.41;4951100;29;20035;-79
2020/12/30 07:49:35;;;;;;;;;;;;;;;2.21;90.88;95795.63;4954748;28;20031;-79
2020/12/30 07:52:02;;;;;;;5.40;2.25;;;;;;;2.29;90.87;95810.69;4950251;29;19914;-79
2020/12/30 07:54:28;;;;;;;8.43;2.80;;;;;;;2.28;90.92;95809.16;4951222;28;20091;-79
2020/12/30 07:57:21;;;;;;;4.93;3.13;;;;;;;2.19;90.83;95810.50;4958983;28;20047;-79
2020/12/30 07:59:51;;;;;;;8.30;3.50;;;;;;;2.21;90.94;95813.59;4945305;28;20047;-79
2020/12/30 08:02:20;;;;;;;8.85;3.10;;;;;;;2.25;91.03;95817.31;4959828;28;20091;-79
2020/12/30 08:04:47;;;;;;;7.28;3.17;;;;;;;2.29;90.88;95823.53;4940802;29;20065;-79
2020/12/30 08:07:16;;;;;;;10.40;3.40;;;;;;;2.37;90.57;95833.47;4931645;28;20018;-79
2020/12/30 08:09:44;;;;;;;8.15;2.97;;;;;;;2.32;91.05;95825.66;4927675;29;20074;-79
2020/12/30 08:12:14;;;;;;;6.88;3.38;;;;;;;2.39;90.41;95828.91;4934942;29;20035;-79
2020/12/30 08:14:44;;;;;;;5.70;2.58;;;;;;;2.38;90.40;95835.06;4936532;28;20034;-78
2020/12/30 08:17:12;;;;;;;7.68;4.25;;;;;;;2.42;90.19;95841.28;4944833;28;20310;-79
2020/12/30 08:19:45;;;;;;;5.80;2.90;;;;;;;2.51;89.82;95846.88;4952959;28;20117;-79
2020/12/30 08:22:15;;;;;;;5.22;2.85;;;;;;;2.47;89.85;95844.97;4927665;28;20134;-79
2020/12/30 08:24:52;;;;;;;5.68;2.88;;;;;;;2.45;89.99;95847.78;4950298;29;20082;-78
2020/12/30 08:27:20;;;;;;;6.35;3.90;;;;;;;2.41;90.51;95850.00;4945447;28;20070;-79
2020/12/30 08:29:46;;;;;;;10.63;3.42;;;;;;;2.38;90.56;95855.59;4946859;28;20035;-79
2020/12/30 08:32:17;;;;;;;6.78;3.25;;;;;;;2.45;90.06;95860.63;4949357;29;20506;-79
2020/12/30 08:34:53;;;;;;;5.70;3.30;;;;;;;2.41;90.20;95862.84;4926630;29;20038;-79
2020/12/30 08:37:25;;;;;;;5.57;2.85;;;;;;;2.41;90.30;95856.94;4904200;29;20558;-79
2020/12/30 08:40:16;;;;;;;6.85;3.08;;;;;;;2.40;90.37;95871.56;4948681;28;20487;-79
2020/12/30 08:42:54;;;;;;;6.53;2.70;;;;;;;2.43;90.24;95878.84;4942678;28;20381;-79
2020/12/30 08:45:30;;;;;;;6.68;3.22;;;;;;;2.41;90.50;95872.34;4932545;28;20578;-79
2020/12/30 08:47:58;;;;;;;8.68;3.55;;;;;;;2.47;90.04;95878.38;4913597;28;20122;-79
2020/12/30 08:50:25;;;;;;;7.22;3.40;;;;;;;2.55;90.12;95883.16;4920644;28;20401;-79
2020/12/30 08:52:51;;;;;;;7.45;3.78;;;;;;;2.51;89.82;95882.84;4876913;28;20033;-79
2020/12/30 08:55:17;;;;;;;5.05;3.28;;;;;;;2.56;90.38;95884.75;4912070;29;20031;-79
2020/12/30 08:57:44;;;;;;;7.75;3.55;;;;;;;2.50;90.37;95883.84;4944062;28;20445;-79
2020/12/30 09:00:21;;;;;;;5.40;3.33;;;;;;;2.51;90.26;95882.84;4942649;28;20097;-79
2020/12/30 09:02:53;;;;;;;5.15;3.50;;;;;;;2.60;89.71;95884.06;4948171;28;20058;-79
2020/12/30 09:05:28;;;;;;;7.32;3.22;;;;;;;2.56;89.92;95893.22;4927074;28;20463;-79
2020/12/30 09:07:54;;;;;;;6.47;3.15;;;;;;;2.63;89.99;95899.00;4955145;28;20113;-79
2020/12/30 09:10:20;;;;;;;6.53;3.83;;;;;;;2.64;89.70;95902.38;4963885;28;20562;-79
2020/12/30 09:12:47;;;;;;;7.05;3.67;;;;;;;2.63;89.74;95900.81;4936521;28;20097;-78
2020/12/30 09:15:14;;;;;;;8.80;3.38;;;;;;;2.61;89.99;95901.03;4952635;28;20039;-79
2020/12/30 09:17:40;;;;;;;9.00;3.30;;;;;;;2.63;90.23;95909.28;4948889;29;20090;-79
2020/12/30 09:20:16;;;;;;;8.75;4.72;;;;;;;2.64;89.44;95910.09;4942512;28;20035;-79
2020/12/30 09:22:43;;;;;;;8.63;3.90;;;;;;;2.67;89.74;95917.34;4956267;28;20027;-79
2020/12/30 09:25:32;;;;;;;7.28;3.47;;;;;;;2.63;89.46;95911.88;4939128;28;20174;-79
2020/12/30 09:27:59;;;;;;;9.35;4.63;;;;;;;2.61;89.64;95908.75;4954886;29;20528;-79
2020/12/30 09:30:26;;;;;;;7.55;3.40;;;;;;;2.67;88.95;95922.47;4927302;29;20494;-79
2020/12/30 09:32:56;;;;;;;5.50;3.30;;;;;;;2.70;89.38;95934.09;4958384;28;20031;-79
2020/12/30 09:35:30;;;;;;;7.35;4.30;;;;;;;2.66;88.36;95938.91;4949054;28;20039;-79
2020/12/30 09:37:58;;;;;;;7.88;4.00;;;;;;;2.73;88.71;95941.38;4950712;29;20087;-79
2020/12/30 09:40:25;;;;;;;8.25;3.58;;;;;;;2.73;89.14;95938.81;4927448;29;20041;-79
2020/12/30 09:42:51;;;;;;;5.65;3.33;;;;;;;2.77;89.13;95945.81;4951726;28;20399;-78
2020/12/30 09:45:19;;;;;;;5.88;3.95;;;;;;;2.77;88.79;95950.97;4955457;28;20031;-79
2020/12/30 09:47:57;;;;;;;8.38;4.47;;;;;;;2.66;89.02;95944.06;4958486;28;20031;-79
2020/12/30 09:50:23;;;;;;;5.80;3.50;;;;;;;2.67;89.33;95945.59;4958026;28;20035;-79
2020/12/30 09:52:50;;;;;;;7.68;4.32;;;;;;;2.68;90.09;95952.31;4948248;29;20077;-79
2020/12/30 09:55:16;;;;;;;6.93;3.78;;;;;;;2.74;89.92;95953.19;4975955;28;20026;-79
2020/12/30 09:57:43;;;;;;;8.95;3.97;;;;;;;2.83;89.56;95949.31;4957014;28;20242;-79
2020/12/30 10:00:09;;;;;;;8.45;3.72;;;;;;;2.82;89.52;95950.31;4956601;29;20027;-79
2020/12/30 10:02:35;;;;;;;9.05;4.50;;;;;;;2.83;89.89;95958.78;4952598;28;20125;-79
2020/12/30 10:05:01;;;;;;;9.05;4.15;;;;;;;2.90;89.49;95954.34;4951276;28;20321;-79
2020/12/30 10:07:29;;;;;;;4.78;3.53;;;;;;;2.93;89.61;95956.44;4958069;28;20041;-79
2020/12/30 10:09:55;;;;;;;7.00;3.50;;;;;;;2.98;89.42;95959.09;4975489;28;20039;-79
2020/12/30 10:12:22;;;;;;;7.15;4.00;;;;;;;3.04;89.37;95962.59;4934124;29;20240;-79
2020/12/30 10:14:48;;;;;;;5.95;4.10;;;;;;;3.04;88.97;95967.72;4958226;28;20042;-79
2020/12/30 10:17:14;;;;;;;8.55;3.80;;;;;;;3.05;89.16;95964.94;4968488;28;20069;-79
2020/12/30 10:19:40;;;;;;;7.70;3.40;;;;;;;3.11;88.30;95966.59;4946922;29;20047;-79
2020/12/30 10:22:08;;;;;;;6.13;3.35;;;;;;;3.04;88.65;95960.78;4952734;29;20035;-79
2020/12/30 10:24:35;;;;;;;5.70;3.63;;;;;;;3.07;88.81;95965.47;4955236;28;20038;-79
2020/12/30 10:27:02;;;;;;;5.85;3.90;;;;;;;3.05;88.32;95966.69;4952135;28;20083;-79
2020/12/30 10:29:31;;;;;;;5.38;3.50;;;;;;;3.10;88.85;95971.94;4968004;28;20459;-79
2020/12/30 10:31:58;;;;;;;6.30;4.25;;;;;;;3.15;88.29;95969.47;4951533;29;20400;-79
2020/12/30 10:34:24;;;;;;;6.85;3.83;;;;;;;3.09;88.51;95970.41;4954484;28;20035;-79
2020/12/30 10:36:50;;;;;;;7.68;4.05;;;;;;;3.08;88.76;95964.47;4951460;28;20043;-79
2020/12/30 10:39:16;;;;;;;7.55;3.88;;;;;;;3.17;88.68;95970.84;4951648;29;20035;-79
2020/12/30 10:41:43;;;;;;;9.27;3.88;;;;;;;3.22;88.95;95970.13;4950936;29;20031;-79
2020/12/30 10:44:08;;;;;;;6.55;4.03;;;;;;;3.17;89.25;95964.88;4949027;29;20526;-79
2020/12/30 10:46:34;;;;;;;7.03;3.88;;;;;;;3.28;87.92;95964.09;4950564;29;20397;-79
2020/12/30 10:49:01;;;;;;;7.35;4.25;;;;;;;3.17;88.52;95967.47;4970819;28;20035;-79
2020/12/30 10:51:27;;;;;;;5.13;3.90;;;;;;;3.11;88.02;95953.72;4964975;28;20042;-79
2020/12/30 10:53:52;;;;;;;6.45;3.85;;;;;;;3.24;87.83;95959.63;4951908;29;20031;-79
2020/12/30 10:56:18;;;;;;;8.25;3.80;;;;;;;3.10;87.55;95944.47;4931606;29;20039;-79
2020/12/30 10:58:44;;;;;;;5.47;3.50;;;;;;;3.25;88.39;95950.91;4943079;29;20035;-78
2020/12/30 11:01:11;;;;;;;8.95;3.95;;;;;;;3.29;88.80;95952.00;4954922;28;20113;-79
2020/12/30 11:03:37;;;;;;;10.43;5.07;;;;;;;3.36;89.11;95962.97;4938310;28;20058;-79
2020/12/30 11:06:03;;;;;;;8.10;4.05;;;;;;;3.55;89.23;95966.16;4951002;28;20035;-79
2020/12/30 11:08:29;;;;;;;5.82;3.53;;;;;;;3.69;86.63;95956.38;4967546;28;20027;-78
2020/12/30 11:11:00;;;;;;;6.63;3.72;;;;;;;3.77;86.09;95961.16;4955087;28;20045;-79
2020/12/30 11:13:26;;;;;;;8.18;3.95;;;;;;;3.77;85.76;95968.88;4946136;29;20038;-79
2020/12/30 11:15:52;;;;;;;8.77;4.85;;;;;;;3.58;86.95;95970.81;4954947;28;20109;-79
2020/12/30 11:18:18;;;;;;;5.80;3.53;;;;;;;3.49;87.75;95972.97;4948214;28;20506;-79
2020/12/30 11:20:44;;;;;;;6.38;4.03;;;;;;;3.49;87.07;95962.69;4927848;29;20182;-79
2020/12/30 11:23:10;;;;;;;7.43;4.70;;;;;;;3.60;87.27;95973.16;4934621;29;20118;-79
2020/12/30 11:25:36;;;;;;;7.00;4.03;;;;;;;3.43;87.53;95967.97;4967251;28;20493;-79
2020/12/30 11:28:03;;;;;;;7.10;3.55;;;;;;;3.44;87.53;95960.00;4943442;29;20027;-79
2020/12/30 11:30:29;;;;;;;5.72;3.75;;;;;;;3.42;87.16;95962.03;4930821;29;20387;-79
2020/12/30 11:32:55;;;;;;;7.25;3.83;;;;;;;3.44;87.18;95967.72;4953832;28;20031;-79
2020/12/30 11:35:21;;;;;;;6.68;3.72;;;;;;;3.41;86.98;95965.63;4950039;28;20445;-79
2020/12/30 11:37:47;;;;;;;7.80;3.97;;;;;;;3.47;85.89;95969.09;4950677;29;20065;-79
2020/12/30 11:40:13;;;;;;;7.60;3.80;;;;;;;3.34;87.00;95970.09;4923646;29;20141;-79
2020/12/30 11:42:40;;;;;;;6.28;3.50;;;;;;;3.23;87.35;95978.66;4949027;28;20083;-79
2020/12/30 11:45:06;;;;;;;6.15;3.95;;;;;;;3.19;87.47;95973.19;4951274;29;20455;-79
2020/12/30 11:47:32;;;;;;;6.18;3.72;;;;;;;3.23;87.07;95973.50;4919614;29;20482;-79